North Springfield, VT (05150)

5:32 PM EST on February 23, 2017 (GMT -0500)
Baker Road | | Change Station
Active Advisory: Areal Flood Watch Active Notice: Areal Flood Watch

Elev 643 ft 43.32 °N, 72.53 °W | Updated 7 minutes ago

Overcast
Overcast
49.9 °F
Feels Like 50 °F
N
0.0
Wind Variable Wind from SW
Gusts 3.0 mph

Today
High -- | Low -- °F
--% Chance of Precip.
Yesterday
High -- | Low -- °F
Precip. -- in
Pressure 29.72 in
Visibility 10.0 miles
Clouds Few 6500 ft
Overcast 8000 ft
Windchill 50 °F
Dew Point 41 °F
Humidity 71%
Rainfall 0.00 in
Snow Depth Not available.
6:35 AM 5:31 PM
Waning Crescent, 8% visible
METAR KVSF 232154Z AUTO 19005KT 10SM FEW065 OVC080 16/04 A2971 RMK AO2 SLP064 T01560039
Pressure 29.72 in
Visibility 10.0 miles
Clouds Few 6500 ft
Overcast 8000 ft
Windchill 50 °F
Dew Point 41 °F
Humidity 71%
Rainfall 0.00 in
Snow Depth Not available.
6:35 AM 5:31 PM
Waning Crescent, 8% visible
METAR KVSF 232154Z AUTO 19005KT 10SM FEW065 OVC080 16/04 A2971 RMK AO2 SLP064 T01560039

Get Your Daily Forecast Email!

Thanks for signing up!

Be on the lookout for a verification email in your inbox.

You'll start receiving the daily forecast at 8 AM.

×

10-Day Weather Forecast

Almanac

Astronomy

Feb. 23, 2017 Rise Set
Actual Time
Civil Twilight
Nautical Twilight
Astronomical Twilight
Moon
Length of Visible Light
Length of Day
Tomorrow will be .
, % of the Moon is Illuminated

Today's Extremes

State Highs State Lows

Community

WunderPhotos

Upload Photos

1,962,540 photos uploaded!

WunderBlog® & News

Nearby

Air Quality

  Air Quality AQ Index Pollutant
Not available.

Snow Depth

Station Depth Elevation

Earthquake Activity

City Distance Mag. Time & Date
Minimum magnitude displayed is 2.5.

Coastal Water Temperatures

Place Temperature

Stations

Nearby Weather Stations

Station Location Temp. Windchill Dew Point Humidity Wind Precip. Elev Updated Type
                   

Watches & Warnings

Areal Flood Watch
Issued: 3:30 PM EST Feb. 23, 2017 – National Weather Service

... Flood Watch remains in effect from Friday evening through
Sunday evening...

The Flood Watch continues for

* all of northern New York and central and northern Vermont.

* From Friday evening through Sunday evening

* minor to locally moderate flooding is possible due to the
combination of snow melt and rainfall amounts between a half and
one inch. The flood threat will be highest on rivers and streams
where ice breakup occurs, primarily across northeast New York
and northern Vermont, primarily north of Route 2. Note that
localized ice jam flooding could begin on Friday, while the bulk
of any flooding is expected after rainfall on Saturday.

Precautionary/preparedness actions...

A Flood Watch means there is a potential for flooding based on
current forecasts.

You should monitor later forecasts and be alert for possible
flood warnings. Those living in areas prone to flooding should be
prepared to take action should flooding develop.


Nash